Skip Navigation Links Skip Navigation Links

Current Weather

De Kalb Taylor Muni, De Kalb, Ill.

For information only: do not use for flight planning or navigation.
Latest weather
Observation time Wednesday, October 27, 2021 2:35 AM CDT
Local time Wednesday, October 27, 2021 2:46 AM CDT
Flight conditions Visual Meteorological Conditions
Winds
Wind direction East (80°)
Wind speed 5 mph
Visibility 5 mi.
Present weather mist
Sky condition
Ceiling unlimited
Sky clear
Temperature 36°F
Dewpoint 36°F
Altimeter 30.02 in.Hg
Derived measurements
Relative humidity 99%
Wind chill 32°F
Density altitude -651 ft.
Remarks
Fully automated report.
Automated weather observing station with precipitation discriminator.
METAR KDKB 270735Z AUTO 08004KT 5SM BR CLR 02/02 A3002 RMK AO2 T00220020

Settings

Location code

InnerDrive.Weather 4.0.6770.0 Release CLR 4.0.30319.42000
Copyright ©2018 Inner Drive Technology. All rights reserved. Portions Copyright ©1986-2018 David Braverman.

Find weather

Site navigation


Skip Navigation Links

Place info

Page info

PayPal - The safer, easier way to pay online!

Return home.

Copyright ©2021 Inner Drive Technology. Purveyors of fine, hand-crafted computer software. Page printed 2021-10-27T07:46:58 UTC.